Terminal Aerodrome Forecast
Issued by NWS

Home | Current Version | Previous Version | Text Only | Print | Product List | Glossary On
Versions: 1 2 3 4 5 6 7 8 9 10 11 12
000
FTUS46 KMTR 012321
TAFSTS
TAF
KSTS 012321Z 0200/0224 22008KT P6SM SKC
     FM021500 VRB03KT 4SM BR OVC010
     FM021800 VRB03KT P6SM SCT015
     FM022000 19010KT P6SM SCT200=

USA.gov is the U.S. government's official web portal to all federal, state and local government web resources and services.